createdAt,value
2019-04-21T00:01:05.681Z,12.80
2019-04-21T00:03:42.282Z,12.60
2019-04-21T00:06:22.473Z,12.50
2019-04-21T00:08:59.300Z,12.50
2019-04-21T00:11:29.360Z,12.40
2019-04-21T00:13:52.218Z,12.30
2019-04-21T00:16:14.114Z,12.20
2019-04-21T00:18:58.193Z,12.20
2019-04-21T00:21:29.144Z,12.30
2019-04-21T00:24:25.190Z,12.20
2019-04-21T00:27:03.858Z,12.20
2019-04-21T00:29:38.352Z,12.20
2019-04-21T00:32:03.362Z,12.20
2019-04-21T00:34:21.606Z,12.10
2019-04-21T00:37:05.126Z,12.10
2019-04-21T00:39:59.206Z,12.10
2019-04-21T00:42:14.392Z,12.00
2019-04-21T00:44:36.775Z,12.00
2019-04-21T00:47:25.263Z,12.00
2019-04-21T00:49:56.626Z,11.90
2019-04-21T00:52:58.072Z,11.70
2019-04-21T00:58:03.452Z,11.80
2019-04-21T01:00:32.544Z,11.70
2019-04-21T01:03:09.340Z,11.70
2019-04-21T01:05:42.852Z,11.70
2019-04-21T01:08:09.438Z,11.70
2019-04-21T01:10:35.964Z,11.60
2019-04-21T01:13:18.376Z,11.60
2019-04-21T01:15:48.942Z,11.60
2019-04-21T01:18:16.885Z,11.60
2019-04-21T01:23:10.520Z,11.50
2019-04-21T01:25:50.441Z,11.60
2019-04-21T01:28:29.013Z,11.60
2019-04-21T01:31:03.454Z,11.60
2019-04-21T01:33:38.018Z,11.60
2019-04-21T01:36:06.939Z,11.70
2019-04-21T01:38:42.841Z,11.60
2019-04-21T01:41:18.383Z,11.60
2019-04-21T01:43:39.465Z,11.60
2019-04-21T01:46:09.300Z,11.60
2019-04-21T01:48:41.521Z,11.60
2019-04-21T01:51:16.066Z,11.50
2019-04-21T01:54:07.636Z,11.50
2019-04-21T01:56:51.422Z,11.50
2019-04-21T01:59:11.046Z,11.50
2019-04-21T02:01:52.438Z,11.50
2019-04-21T02:04:33.085Z,11.40
2019-04-21T02:06:57.339Z,11.50
2019-04-21T02:09:37.192Z,11.40
2019-04-21T02:12:10.553Z,11.40
2019-04-21T02:14:45.865Z,11.30
2019-04-21T02:17:14.922Z,11.30
2019-04-21T02:19:37.510Z,11.20
2019-04-21T02:22:11.474Z,11.20
2019-04-21T02:24:56.822Z,11.30
2019-04-21T02:27:21.848Z,11.30
2019-04-21T02:29:55.948Z,11.30
2019-04-21T02:32:42.079Z,11.20
2019-04-21T02:37:44.655Z,11.20
2019-04-21T02:40:20.948Z,11.20
2019-04-21T02:42:46.606Z,11.10
2019-04-21T02:45:09.295Z,11.10
2019-04-21T02:47:50.670Z,11.10
2019-04-21T02:52:46.301Z,11.10
2019-04-21T02:55:08.226Z,11.10
2019-04-21T02:57:51.444Z,11.00
2019-04-21T03:00:25.076Z,11.00
2019-04-21T03:03:45.283Z,11.00
2019-04-21T03:06:26.390Z,11.10
2019-04-21T03:11:42.605Z,11.00
2019-04-21T03:14:05.873Z,10.90
2019-04-21T03:16:26.504Z,11.00
2019-04-21T03:19:05.854Z,11.00
2019-04-21T03:21:29.025Z,10.90
2019-04-21T03:29:12.142Z,10.80
2019-04-21T03:32:06.147Z,10.70
2019-04-21T03:36:56.911Z,10.70
2019-04-21T03:39:11.969Z,10.70
2019-04-21T03:41:48.100Z,10.80
2019-04-21T03:44:14.701Z,10.70
2019-04-21T03:47:08.342Z,10.70
2019-04-21T03:52:10.814Z,10.50
2019-04-21T03:55:41.384Z,10.50
2019-04-21T03:58:05.128Z,10.50
2019-04-21T04:00:34.623Z,10.40
2019-04-21T04:16:27.018Z,10.20
2019-04-21T04:21:30.794Z,10.10
2019-04-21T04:23:57.847Z,10.00
2019-04-21T04:26:22.138Z,10.00
2019-04-21T04:28:56.283Z,10.00
2019-04-21T04:31:32.056Z,10.00
2019-04-21T04:34:05.056Z,10.00
2019-04-21T04:36:50.503Z,10.00
2019-04-21T04:39:45.600Z,9.90
2019-04-21T04:42:35.498Z,9.90
2019-04-21T04:45:01.600Z,9.90
2019-04-21T04:52:31.292Z,9.90
2019-04-21T04:55:03.860Z,9.90
2019-04-21T04:57:29.473Z,10.10
2019-04-21T04:59:49.870Z,10.30
2019-04-21T05:02:29.944Z,10.50
2019-04-21T05:05:15.704Z,10.50
2019-04-21T05:09:59.393Z,10.50
2019-04-21T05:15:04.850Z,10.80
2019-04-21T05:17:38.183Z,11.00
2019-04-21T05:20:08.866Z,11.10
2019-04-21T05:22:29.030Z,11.30
2019-04-21T05:24:55.358Z,11.40
2019-04-21T05:27:46.959Z,11.50
2019-04-21T05:30:49.027Z,11.70
2019-04-21T05:33:39.832Z,12.10
2019-04-21T05:36:10.945Z,12.50
2019-04-21T05:38:56.645Z,13.40
2019-04-21T05:41:23.201Z,13.90
2019-04-21T05:43:56.466Z,15.20
2019-04-21T05:46:32.064Z,17.20
2019-04-21T05:51:55.635Z,18.70
2019-04-21T05:54:53.013Z,20.90
2019-04-21T05:57:02.550Z,21.40
2019-04-21T05:59:32.396Z,22.40
2019-04-21T06:02:15.282Z,22.80
2019-04-21T06:04:52.644Z,23.20
2019-04-21T06:07:13.926Z,22.50
2019-04-21T06:09:40.960Z,23.30
2019-04-21T06:12:04.716Z,23.40
2019-04-21T06:14:45.093Z,24.40
2019-04-21T06:17:15.334Z,24.90
2019-04-21T06:19:43.507Z,26.40
2019-04-21T06:25:13.426Z,26.90
2019-04-21T06:27:26.388Z,27.00
2019-04-21T06:29:50.217Z,27.10
2019-04-21T06:32:36.255Z,28.30
2019-04-21T06:35:17.162Z,28.70
2019-04-21T06:37:43.218Z,27.80
2019-04-21T06:40:15.132Z,28.40
2019-04-21T06:42:32.658Z,27.00
2019-04-21T06:45:12.363Z,28.00
2019-04-21T06:47:47.320Z,29.10
2019-04-21T06:50:09.658Z,30.00
2019-04-21T06:52:51.404Z,29.00
2019-04-21T06:58:02.143Z,29.80
2019-04-21T07:00:27.079Z,31.00
2019-04-21T07:03:11.533Z,29.80
2019-04-21T07:05:33.551Z,29.10
2019-04-21T07:08:17.052Z,29.60
2019-04-21T07:10:31.956Z,31.00
2019-04-21T07:13:03.290Z,31.50
2019-04-21T07:15:41.006Z,30.40
2019-04-21T07:18:04.508Z,30.10
2019-04-21T07:20:36.733Z,28.90
2019-04-21T07:23:09.488Z,29.40
2019-04-21T07:25:49.781Z,30.00
2019-04-21T07:28:14.062Z,31.60
2019-04-21T07:30:50.214Z,32.70
2019-04-21T07:33:34.499Z,30.60
2019-04-21T07:35:49.294Z,31.00
2019-04-21T07:38:16.661Z,29.40
2019-04-21T07:40:41.714Z,29.70
2019-04-21T07:43:13.665Z,31.40
2019-04-21T07:45:40.115Z,32.60
2019-04-21T07:48:19.247Z,32.10
2019-04-21T07:51:20.727Z,32.50
2019-04-21T07:53:55.929Z,33.00
2019-04-21T07:56:09.717Z,33.00
2019-04-21T07:58:58.261Z,31.80
2019-04-21T08:01:28.954Z,33.00
2019-04-21T08:03:58.116Z,33.10
2019-04-21T08:06:26.831Z,32.90
2019-04-21T08:08:55.992Z,30.30
2019-04-21T08:11:25.857Z,31.80
2019-04-21T08:13:57.252Z,34.20
2019-04-21T08:16:30.599Z,32.90
2019-04-21T08:19:09.762Z,33.50
2019-04-21T08:21:35.644Z,33.00
2019-04-21T08:24:06.368Z,33.10
2019-04-21T08:26:44.906Z,34.10
2019-04-21T08:29:21.464Z,34.40
2019-04-21T08:31:50.329Z,34.80
2019-04-21T08:34:14.078Z,34.80
2019-04-21T08:36:43.238Z,34.50
2019-04-21T08:39:12.996Z,35.10
2019-04-21T08:41:46.027Z,34.90
2019-04-21T08:44:23.197Z,33.20
2019-04-21T08:46:55.086Z,32.40
2019-04-21T08:49:22.239Z,35.00
2019-04-21T08:51:57.823Z,36.10
2019-04-21T08:57:16.327Z,35.80
2019-04-21T09:02:37.251Z,35.10
2019-04-21T09:05:09.487Z,34.40
2019-04-21T09:07:39.433Z,36.20
2019-04-21T09:10:03.007Z,35.30
2019-04-21T09:12:38.820Z,37.80
2019-04-21T09:15:08.087Z,35.50
2019-04-21T09:17:31.625Z,36.00
2019-04-21T09:20:13.960Z,37.40
2019-04-21T09:22:38.226Z,37.30
2019-04-21T09:25:14.657Z,35.90
2019-04-21T09:27:42.459Z,34.70
2019-04-21T09:30:01.040Z,32.20
2019-04-21T09:32:30.781Z,33.30
2019-04-21T09:35:03.356Z,32.80
2019-04-21T09:37:43.488Z,32.20
2019-04-21T09:40:03.018Z,31.50
2019-04-21T09:42:40.969Z,30.90
2019-04-21T09:45:07.669Z,31.20
2019-04-21T09:47:45.041Z,32.20
2019-04-21T09:50:10.253Z,31.50
2019-04-21T09:52:48.850Z,30.40
2019-04-21T09:55:15.948Z,29.30
2019-04-21T09:57:48.453Z,28.80
2019-04-21T10:00:19.463Z,28.90
2019-04-21T10:02:54.479Z,28.10
2019-04-21T10:05:16.892Z,27.30
2019-04-21T10:07:46.795Z,28.00
2019-04-21T10:10:17.277Z,26.80
2019-04-21T10:12:47.774Z,27.30
2019-04-21T10:15:19.118Z,27.20
2019-04-21T10:17:53.979Z,26.90
2019-04-21T10:20:24.508Z,26.40
2019-04-21T10:22:55.296Z,27.00
2019-04-21T10:25:25.196Z,26.90
2019-04-21T10:27:55.174Z,26.80
2019-04-21T10:30:24.926Z,26.10
2019-04-21T10:32:54.770Z,26.70
2019-04-21T10:35:26.001Z,26.20
2019-04-21T10:38:06.793Z,26.00
2019-04-21T10:40:29.191Z,26.10
2019-04-21T10:42:58.939Z,26.10
2019-04-21T10:45:28.770Z,26.10
2019-04-21T10:47:58.849Z,26.00
2019-04-21T10:50:28.820Z,26.00
2019-04-21T10:53:01.084Z,25.90
2019-04-21T10:55:44.424Z,25.70
2019-04-21T10:58:28.478Z,24.60
2019-04-21T11:01:27.378Z,25.00
2019-04-21T11:04:19.550Z,24.90
2019-04-21T11:06:42.401Z,25.30
2019-04-21T11:09:13.760Z,25.10
2019-04-21T11:11:46.467Z,25.20
2019-04-21T11:14:15.418Z,24.80
2019-04-21T11:16:46.861Z,24.70
2019-04-21T11:19:15.853Z,24.90
2019-04-21T11:21:45.259Z,24.60
2019-04-21T11:24:14.338Z,24.90
2019-04-21T11:26:43.117Z,24.90
2019-04-21T11:29:12.824Z,24.90
2019-04-21T11:31:43.240Z,24.50
2019-04-21T11:34:13.405Z,24.40
2019-04-21T11:36:42.185Z,24.80
2019-04-21T11:39:38.888Z,24.80
2019-04-21T11:42:01.646Z,24.80
2019-04-21T11:44:31.038Z,24.80
2019-04-21T11:47:00.567Z,24.70
2019-04-21T11:49:32.023Z,24.60
2019-04-21T11:52:00.700Z,24.50
2019-04-21T11:54:30.827Z,24.50
2019-04-21T11:57:02.210Z,24.20
2019-04-21T11:59:30.027Z,24.40
2019-04-21T12:01:59.349Z,24.40
2019-04-21T12:04:29.453Z,24.40
2019-04-21T12:06:59.726Z,24.60
2019-04-21T12:09:29.322Z,24.30
2019-04-21T12:11:59.120Z,24.30
2019-04-21T12:14:28.111Z,24.40
2019-04-21T12:16:57.236Z,24.20
2019-04-21T12:19:30.590Z,24.40
2019-04-21T12:22:10.077Z,24.40
2019-04-21T12:24:32.954Z,24.30
2019-04-21T12:27:02.242Z,24.30
2019-04-21T12:29:31.299Z,24.10
2019-04-21T12:32:22.223Z,23.90
2019-04-21T12:34:52.199Z,24.00
2019-04-21T12:37:22.747Z,24.20
2019-04-21T12:39:52.547Z,24.10
2019-04-21T12:42:22.789Z,24.40
2019-04-21T12:44:51.761Z,24.50
2019-04-21T12:47:21.670Z,24.60
2019-04-21T12:49:52.026Z,24.50
2019-04-21T12:52:21.864Z,24.40
2019-04-21T12:54:51.501Z,24.40
2019-04-21T12:57:21.418Z,24.30
2019-04-21T12:59:50.932Z,24.50
2019-04-21T13:02:19.899Z,24.20
2019-04-21T13:04:49.739Z,24.50
2019-04-21T13:07:19.498Z,24.40
2019-04-21T13:09:48.539Z,24.60
2019-04-21T13:12:17.268Z,24.40
2019-04-21T13:14:47.400Z,24.20
2019-04-21T13:17:17.221Z,24.40
2019-04-21T13:19:47.052Z,24.20
2019-04-21T13:22:16.162Z,24.30
2019-04-21T13:24:44.967Z,24.40
2019-04-21T13:27:13.654Z,24.40
2019-04-21T13:29:43.967Z,24.40
2019-04-21T13:32:14.222Z,24.50
2019-04-21T13:34:44.259Z,24.60
2019-04-21T13:37:13.072Z,24.90
2019-04-21T13:40:16.449Z,24.50
2019-04-21T13:42:36.251Z,24.50
2019-04-21T13:45:00.978Z,24.20
2019-04-21T13:47:28.630Z,24.20
2019-04-21T13:49:59.839Z,24.40
2019-04-21T13:52:28.914Z,24.40
2019-04-21T13:54:58.190Z,24.20
2019-04-21T13:57:28.368Z,24.20
2019-04-21T13:59:57.237Z,24.30
2019-04-21T14:02:26.820Z,24.30
2019-04-21T14:04:55.753Z,24.30
2019-04-21T14:07:26.046Z,24.10
2019-04-21T14:09:59.483Z,24.40
2019-04-21T14:12:25.370Z,24.50
2019-04-21T14:14:54.419Z,24.50
2019-04-21T14:17:24.674Z,24.70
2019-04-21T14:19:53.638Z,24.90
2019-04-21T14:22:24.154Z,24.80
2019-04-21T14:24:54.101Z,24.60
2019-04-21T14:27:23.991Z,24.40
2019-04-21T14:29:53.566Z,24.50
2019-04-21T14:32:22.540Z,24.40
2019-04-21T14:34:53.884Z,24.40
2019-04-21T14:37:22.637Z,24.40
2019-04-21T14:39:59.702Z,24.30
2019-04-21T14:42:22.427Z,24.20
2019-04-21T14:44:51.220Z,24.20
2019-04-21T14:47:29.481Z,24.20
2019-04-21T14:50:20.135Z,24.30
2019-04-21T14:53:07.862Z,24.50
2019-04-21T14:55:39.435Z,24.50
2019-04-21T14:58:09.440Z,24.50
2019-04-21T15:00:52.955Z,24.60
2019-04-21T15:03:21.741Z,24.50
2019-04-21T15:05:51.544Z,24.50
2019-04-21T15:08:21.495Z,24.60
2019-04-21T15:10:50.281Z,24.70
2019-04-21T15:13:19.569Z,24.70
2019-04-21T15:15:49.626Z,24.60
2019-04-21T15:18:18.798Z,24.70
2019-04-21T15:20:50.288Z,24.40
2019-04-21T15:23:18.063Z,24.50
2019-04-21T15:25:48.056Z,24.60
2019-04-21T15:28:17.771Z,24.60
2019-04-21T15:30:47.064Z,24.50
2019-04-21T15:33:16.314Z,24.60
2019-04-21T15:35:45.075Z,24.50
2019-04-21T15:38:14.035Z,24.50
2019-04-21T15:40:50.231Z,24.40
2019-04-21T15:43:14.676Z,24.20
2019-04-21T15:45:44.548Z,24.10
2019-04-21T15:48:14.011Z,24.30
2019-04-21T15:50:44.053Z,24.40
2019-04-21T15:53:13.962Z,24.40
2019-04-21T15:55:57.060Z,24.40
2019-04-21T15:58:54.618Z,24.30
2019-04-21T16:01:28.570Z,24.30
2019-04-21T16:03:59.192Z,24.40
2019-04-21T16:06:27.729Z,24.40
2019-04-21T16:08:59.010Z,24.30
2019-04-21T16:11:28.089Z,24.20
2019-04-21T16:13:57.425Z,24.10
2019-04-21T16:16:28.657Z,24.20
2019-04-21T16:18:56.482Z,24.10
2019-04-21T16:21:26.264Z,24.10
2019-04-21T16:23:56.244Z,24.10
2019-04-21T16:26:26.657Z,24.00
2019-04-21T16:28:55.475Z,24.00
2019-04-21T16:31:24.849Z,24.00
2019-04-21T16:33:54.653Z,23.90
2019-04-21T16:36:23.462Z,23.90
2019-04-21T16:38:53.487Z,23.80
2019-04-21T16:41:22.448Z,23.80
2019-04-21T16:43:51.556Z,23.70
2019-04-21T16:46:21.124Z,23.70
2019-04-21T16:48:49.805Z,23.70
2019-04-21T16:51:18.497Z,23.60
2019-04-21T16:53:52.128Z,23.60
2019-04-21T16:56:31.149Z,23.50
2019-04-21T16:59:12.953Z,23.50
2019-04-21T17:01:42.727Z,23.40
2019-04-21T17:04:12.688Z,23.30
2019-04-21T17:06:42.860Z,23.30
2019-04-21T17:09:12.631Z,23.30
2019-04-21T17:11:43.707Z,23.20
2019-04-21T17:14:28.520Z,23.20
2019-04-21T17:17:12.636Z,23.10
2019-04-21T17:26:55.314Z,23.00
2019-04-21T17:29:24.958Z,22.80
2019-04-21T17:31:53.621Z,22.80
2019-04-21T17:34:26.225Z,22.60
2019-04-21T17:36:53.071Z,22.60
2019-04-21T17:39:22.837Z,22.60
2019-04-21T17:42:05.623Z,22.50
2019-04-21T17:44:23.397Z,22.40
2019-04-21T17:47:00.692Z,22.30
2019-04-21T17:49:23.331Z,22.20
2019-04-21T17:52:16.809Z,22.00
2019-04-21T17:54:50.575Z,22.00
2019-04-21T17:57:36.843Z,21.90
2019-04-21T18:00:52.050Z,21.80
2019-04-21T18:03:00.035Z,21.70
2019-04-21T18:05:31.939Z,21.60
2019-04-21T18:07:54.398Z,21.50
2019-04-21T18:10:30.684Z,21.50
2019-04-21T18:12:57.345Z,21.40
2019-04-21T18:15:38.270Z,21.30
2019-04-21T18:17:52.412Z,21.10
2019-04-21T18:20:26.014Z,21.00
2019-04-21T18:23:22.751Z,21.00
2019-04-21T18:25:54.093Z,20.80
2019-04-21T18:28:14.442Z,20.60
2019-04-21T18:30:52.276Z,20.60
2019-04-21T18:33:27.365Z,20.50
2019-04-21T18:36:29.230Z,20.40
2019-04-21T18:39:28.811Z,20.40
2019-04-21T18:42:04.909Z,20.30
2019-04-21T18:45:11.066Z,20.20
2019-04-21T18:47:39.897Z,20.50
2019-04-21T18:49:54.566Z,20.30
2019-04-21T18:52:45.214Z,20.30
2019-04-21T18:55:09.862Z,20.10
2019-04-21T18:57:37.582Z,19.80
2019-04-21T18:59:59.449Z,19.90
2019-04-21T19:02:38.131Z,19.80
2019-04-21T19:05:04.345Z,19.60
2019-04-21T19:07:45.443Z,19.60
2019-04-21T19:10:26.675Z,19.70
2019-04-21T19:15:20.356Z,19.60
2019-04-21T19:20:26.119Z,19.50
2019-04-21T19:22:52.380Z,19.40
2019-04-21T19:25:20.613Z,19.30
2019-04-21T19:27:57.064Z,19.20
2019-04-21T19:30:36.658Z,19.50
2019-04-21T19:32:58.318Z,19.40
2019-04-21T19:35:13.049Z,19.30
2019-04-21T19:37:49.785Z,19.20
2019-04-21T19:40:31.403Z,19.10
2019-04-21T19:42:55.859Z,19.30
2019-04-21T19:45:27.929Z,19.10
2019-04-21T19:48:05.558Z,18.90
2019-04-21T19:50:36.085Z,18.80
2019-04-21T19:52:57.841Z,18.60
2019-04-21T19:55:20.060Z,18.60
2019-04-21T19:57:50.016Z,18.40
2019-04-21T20:00:20.118Z,18.20
2019-04-21T20:02:50.410Z,18.10
2019-04-21T20:05:29.746Z,18.00
2019-04-21T20:08:06.629Z,17.90
2019-04-21T20:10:44.151Z,17.90
2019-04-21T20:13:26.073Z,17.80
2019-04-21T20:15:45.848Z,17.60
2019-04-21T20:18:14.482Z,17.40
2019-04-21T20:20:31.040Z,17.20
2019-04-21T20:23:01.325Z,17.20
2019-04-21T20:25:41.816Z,17.10
2019-04-21T20:28:09.955Z,16.90
2019-04-21T20:30:52.679Z,16.80
2019-04-21T20:35:58.281Z,16.50
2019-04-21T20:38:19.069Z,16.40
2019-04-21T20:40:51.008Z,16.30
2019-04-21T20:43:36.557Z,16.10
2019-04-21T20:46:03.553Z,16.10
2019-04-21T20:48:28.628Z,16.00
2019-04-21T20:51:06.448Z,15.90
2019-04-21T20:53:34.318Z,16.30
2019-04-21T20:56:05.208Z,16.00
2019-04-21T20:58:40.732Z,15.80
2019-04-21T21:01:25.730Z,15.70
2019-04-21T21:03:46.082Z,15.70
2019-04-21T21:06:09.970Z,15.60
2019-04-21T21:08:49.810Z,15.60
2019-04-21T21:11:21.519Z,15.50
2019-04-21T21:13:53.701Z,15.40
2019-04-21T21:16:35.458Z,15.30
2019-04-21T21:19:10.291Z,15.30
2019-04-21T21:21:27.952Z,15.30
2019-04-21T21:23:58.821Z,15.20
2019-04-21T21:26:33.224Z,15.10
2019-04-21T21:28:56.356Z,15.00
2019-04-21T21:31:37.973Z,14.90
2019-04-21T21:34:13.295Z,14.90
2019-04-21T21:36:39.714Z,14.80
2019-04-21T21:39:09.648Z,14.80
2019-04-21T21:41:29.878Z,14.70
2019-04-21T21:44:01.818Z,14.50
2019-04-21T21:46:41.671Z,14.50
2019-04-21T21:49:07.580Z,14.40
2019-04-21T21:51:42.239Z,14.30
2019-04-21T21:54:00.929Z,14.20
2019-04-21T21:56:30.688Z,14.20
2019-04-21T21:59:01.206Z,14.10
2019-04-21T22:01:39.914Z,14.10
2019-04-21T22:04:12.712Z,14.00
2019-04-21T22:06:43.365Z,14.00
2019-04-21T22:09:10.347Z,13.90
2019-04-21T22:11:40.306Z,13.90
2019-04-21T22:14:16.654Z,13.80
2019-04-21T22:16:49.323Z,13.80
2019-04-21T22:19:30.027Z,13.60
2019-04-21T22:22:08.368Z,13.50
2019-04-21T22:24:35.138Z,13.40
2019-04-21T22:26:47.417Z,13.40
2019-04-21T22:29:17.329Z,13.20
2019-04-21T22:31:48.341Z,13.20
2019-04-21T22:34:23.015Z,13.30
2019-04-21T22:37:01.523Z,13.30
2019-04-21T22:39:42.127Z,13.30
2019-04-21T22:42:01.753Z,13.30
2019-04-21T22:44:24.737Z,13.20
2019-04-21T22:47:04.196Z,13.10
2019-04-21T22:49:26.475Z,13.00
2019-04-21T22:52:00.758Z,13.10
2019-04-21T22:54:34.330Z,13.00
2019-04-21T22:57:05.229Z,13.00
2019-04-21T22:59:32.036Z,12.80
2019-04-21T23:02:06.428Z,12.80
2019-04-21T23:04:41.815Z,12.70
2019-04-21T23:07:10.110Z,12.80
2019-04-21T23:09:37.529Z,12.70
2019-04-21T23:12:08.054Z,12.70
2019-04-21T23:14:46.770Z,12.60
2019-04-21T23:17:29.846Z,12.60
2019-04-21T23:20:04.058Z,12.50
2019-04-21T23:22:31.282Z,12.50
2019-04-21T23:25:02.982Z,12.80
2019-04-21T23:27:33.687Z,12.90
2019-04-21T23:30:13.554Z,13.00
2019-04-21T23:32:30.448Z,13.20
2019-04-21T23:34:51.106Z,13.50
2019-04-21T23:37:24.127Z,13.70
2019-04-21T23:40:01.148Z,13.70
2019-04-21T23:42:31.825Z,13.80
2019-04-21T23:44:58.402Z,13.80
2019-04-21T23:47:39.093Z,13.70
2019-04-21T23:50:07.367Z,13.80
2019-04-21T23:52:29.982Z,13.80
2019-04-21T23:55:00.991Z,13.80
2019-04-21T23:57:37.934Z,13.80
